Time;durP1;ratioP1;P1;durP2;ratioP2;P2;SDS_P1;SDS_P2;PMS_P1;PMS_P2;Temp;Humidity;BMP_temperature;BMP_pressure;BME280_temperature;BME280_humidity;BME280_pressure;Samples;Min_cycle;Max_cycle;Signal;HPM_P1;HPM_P2
2023/10/03 00:00:33;;;;;;;;;12.25;9.75;;;;;24.50;50.07;100881.00;5015704;28;45747;-70
2023/10/03 00:03:00;;;;;;;;;14.00;9.25;;;;;24.44;50.11;100875.97;5013911;28;45550;-72
2023/10/03 00:05:33;;;;;;;;;12.00;11.00;;;;;24.49;49.62;100878.44;5014394;28;45431;-73
2023/10/03 00:08:03;;;;;;;;;9.75;8.50;;;;;24.46;49.86;100882.13;5015972;28;45711;-73
2023/10/03 00:10:29;;;;;;;;;13.00;10.75;;;;;24.43;50.52;100884.06;5015675;28;45442;-73
2023/10/03 00:12:55;;;;;;;;;15.25;10.25;;;;;24.39;50.04;100874.47;5014467;28;45389;-72
2023/10/03 00:15:26;;;;;;;;;13.67;11.67;;;;;24.47;50.11;100893.72;5015392;28;45417;-72
2023/10/03 00:17:55;;;;;;;;;13.25;12.00;;;;;24.46;50.28;100895.50;5016105;28;45404;-71
2023/10/03 00:20:22;;;;;;;;;8.75;7.50;;;;;24.36;50.64;100878.19;5015693;28;45505;-72
2023/10/03 00:22:49;;;;;;;;;11.50;9.75;;;;;24.29;51.00;100882.13;5016759;28;45405;-72
2023/10/03 00:25:18;;;;;;;;;9.25;9.25;;;;;24.25;51.10;100884.13;5015776;28;45674;-74
2023/10/03 00:27:51;;;;;;;;;15.00;11.67;;;;;24.22;51.13;100886.06;5016480;28;45549;-73
2023/10/03 00:30:20;;;;;;;;;13.75;11.75;;;;;24.21;51.09;100893.25;5014534;28;45667;-73
2023/10/03 00:32:54;;;;;;;;;12.00;10.00;;;;;24.22;51.64;100892.28;5015900;28;45459;-73
2023/10/03 00:35:20;;;;;;;;;14.25;11.75;;;;;24.17;51.29;100880.09;5015005;28;45453;-72
2023/10/03 00:37:48;;;;;;;;;15.67;15.33;;;;;24.07;51.91;100867.22;5015276;28;45556;-72
2023/10/03 00:42:51;;;;;;;;;9.00;9.00;;;;;24.05;52.22;100879.78;5016561;28;45402;-72
2023/10/03 00:45:24;;;;;;;;;12.00;10.50;;;;;24.19;51.75;100907.66;5018978;28;45456;-72
2023/10/03 00:47:54;;;;;;;;;13.25;10.00;;;;;24.19;52.20;100905.84;5018904;28;45357;-72
2023/10/03 00:50:23;;;;;;;;;10.00;10.00;;;;;24.20;51.90;100914.72;5018817;28;46293;-71
2023/10/03 00:52:57;;;;;;;;;12.00;11.00;;;;;24.22;52.52;100907.50;5018378;28;45517;-71
2023/10/03 00:55:28;;;;;;;;;13.00;11.67;;;;;24.17;52.33;100914.91;5018758;28;45930;-73
2023/10/03 01:00:28;;;;;;;;;12.67;11.67;;;;;24.05;52.05;100893.19;5018755;28;46383;-72
2023/10/03 01:02:54;;;;;;;;;12.33;11.67;;;;;23.97;52.25;100879.34;5017870;28;45982;-72
2023/10/03 01:05:20;;;;;;;;;12.00;11.67;;;;;23.97;52.05;100890.03;5019419;28;45434;-73
2023/10/03 01:07:49;;;;;;;;;11.67;11.33;;;;;24.18;52.29;100925.53;5019122;28;45545;-72
2023/10/03 01:10:17;;;;;;;;;11.67;11.67;;;;;23.79;52.83;100865.09;5019177;28;45413;-73
2023/10/03 01:12:45;;;;;;;;;15.67;13.67;;;;;24.09;52.71;100915.31;5019451;28;45488;-72
2023/10/03 01:15:19;;;;;;;;;17.00;12.67;;;;;24.10;53.20;100933.94;5020269;28;45467;-73
2023/10/03 01:17:48;;;;;;;;;13.33;11.33;;;;;24.06;53.36;100918.13;5020015;28;45479;-72
2023/10/03 01:20:28;;;;;;;;;11.67;11.67;;;;;24.08;53.23;100926.94;5017391;28;46138;-73
2023/10/03 01:22:54;;;;;;;;;13.00;13.00;;;;;23.71;53.51;100875.28;5018961;28;45629;-72
2023/10/03 01:25:21;;;;;;;;;14.00;13.67;;;;;23.81;53.74;100897.13;5018495;28;45471;-70
2023/10/03 01:27:47;;;;;;;;;13.00;12.33;;;;;24.05;53.26;100946.69;5033527;28;45649;-73
2023/10/03 01:30:12;;;;;;;;;16.67;11.67;;;;;23.95;53.64;100937.41;5018078;28;45449;-72
2023/10/03 01:32:50;;;;;;;;;16.33;13.67;;;;;24.04;54.07;100954.81;5018303;28;45538;-71
2023/10/03 01:35:16;;;;;;;;;14.67;12.33;;;;;24.03;54.45;100945.03;5018581;28;45392;-73
2023/10/03 01:37:41;;;;;;;;;15.67;13.67;;;;;23.92;54.87;100938.44;5018410;28;45450;-73
2023/10/03 01:40:13;;;;;;;;;21.67;15.00;;;;;24.01;55.07;100952.28;5017941;28;46093;-72
2023/10/03 01:42:45;;;;;;;;;15.00;12.67;;;;;23.95;54.50;100940.09;5017013;28;45556;-72
2023/10/03 01:45:21;;;;;;;;;10.33;10.33;;;;;23.98;54.67;100944.41;5012169;28;45511;-73
2023/10/03 01:47:51;;;;;;;;;17.67;14.67;;;;;23.99;55.56;100955.03;5017200;28;45459;-72
2023/10/03 01:50:21;;;;;;;;;14.00;14.00;;;;;23.89;55.41;100948.41;5018479;28;45458;-71
2023/10/03 01:52:49;;;;;;;;;14.67;14.67;;;;;23.91;55.84;100938.50;5018664;28;45489;-72
2023/10/03 01:55:18;;;;;;;;;15.67;13.33;;;;;23.97;55.89;100956.94;5010673;28;45490;-71
2023/10/03 01:57:44;;;;;;;;;16.00;13.67;;;;;23.97;56.35;100962.28;5018674;28;45470;-71
2023/10/03 02:00:26;;;;;;;;;16.67;14.00;;;;;23.91;56.96;100950.06;5018310;28;46316;-71
2023/10/03 02:03:04;;;;;;;;;19.67;18.33;;;;;23.95;56.84;100955.28;5018365;28;45514;-73
2023/10/03 02:05:33;;;;;;;;;16.33;13.00;;;;;23.88;57.18;100935.97;5018793;28;45421;-72
2023/10/03 02:08:07;;;;;;;;;17.33;17.33;;;;;23.88;57.72;100942.19;5018402;28;45427;-73
2023/10/03 02:10:34;;;;;;;;;15.33;15.33;;;;;23.85;57.74;100954.88;5019247;28;46442;-73
2023/10/03 02:13:04;;;;;;;;;17.00;15.67;;;;;23.79;58.01;100945.31;5019201;28;45779;-71
2023/10/03 02:15:29;;;;;;;;;19.00;17.00;;;;;23.68;58.65;100940.50;5018188;28;45462;-68
2023/10/03 02:17:57;;;;;;;;;20.00;17.00;;;;;23.72;58.83;100962.59;5018566;28;45389;-71
2023/10/03 02:20:25;;;;;;;;;19.67;16.33;;;;;23.77;58.42;100962.38;5017851;28;46330;-70
2023/10/03 02:22:54;;;;;;;;;15.00;14.67;;;;;23.63;58.43;100923.81;5017782;28;45414;-70
2023/10/03 02:25:28;;;;;;;;;24.00;17.67;;;;;23.58;58.89;100927.63;5017851;28;45525;-70
2023/10/03 02:27:54;;;;;;;;;23.67;20.67;;;;;23.75;59.16;100958.94;5016454;28;45361;-70
2023/10/03 02:30:23;;;;;;;;;16.33;15.67;;;;;23.76;58.75;100958.84;5017654;28;46381;-70
2023/10/03 02:33:09;;;;;;;;;19.00;15.00;;;;;23.74;59.27;100955.38;5017338;28;45406;-71
2023/10/03 02:35:38;;;;;;;;;20.00;17.00;;;;;23.72;58.86;100957.22;5016411;28;45458;-71
2023/10/03 02:38:05;;;;;;;;;17.67;15.33;;;;;23.73;58.67;100966.13;5021317;28;45451;-71
2023/10/03 02:40:32;;;;;;;;;24.33;17.67;;;;;23.76;58.54;100966.03;5024021;28;46195;-70
2023/10/03 02:42:59;;;;;;;;;19.33;16.67;;;;;23.71;58.76;100943.00;5021414;28;45397;-71
2023/10/03 02:45:25;;;;;;;;;18.00;15.67;;;;;23.71;58.63;100951.03;5018245;28;45384;-70
2023/10/03 02:47:55;;;;;;;;;18.00;17.67;;;;;23.76;59.00;100947.31;5016530;28;45681;-69
2023/10/03 02:50:23;;;;;;;;;17.33;13.33;;;;;23.75;58.95;100953.56;5016936;28;45493;-69
2023/10/03 02:52:48;;;;;;;;;18.00;13.67;;;;;23.73;58.83;100959.00;5016826;28;45532;-69
2023/10/03 02:55:15;;;;;;;;;22.67;15.67;;;;;23.78;58.58;100970.34;5017435;28;45474;-69
2023/10/03 02:57:41;;;;;;;;;19.67;18.33;;;;;23.66;58.68;100960.22;5017606;28;45512;-70
2023/10/03 03:00:14;;;;;;;;;18.33;18.00;;;;;23.67;58.95;100967.28;5015367;28;48047;-70
2023/10/03 03:02:47;;;;;;;;;22.00;19.00;;;;;23.61;58.87;100954.22;5016989;28;45438;-70
2023/10/03 03:05:17;;;;;;;;;18.67;18.00;;;;;23.64;58.83;100959.44;5015695;28;45518;-69
2023/10/03 03:07:54;;;;;;;;;15.00;15.00;;;;;23.63;58.77;100966.59;5016861;28;45454;-70
2023/10/03 03:10:24;;;;;;;;;16.67;16.67;;;;;23.67;58.68;100973.50;5017030;28;45544;-69
2023/10/03 03:12:50;;;;;;;;;17.00;15.67;;;;;23.66;58.55;100970.94;5015260;28;45558;-70
2023/10/03 03:15:23;;;;;;;;;15.33;14.67;;;;;23.59;58.73;100970.34;5016910;28;45674;-69
2023/10/03 03:17:52;;;;;;;;;17.33;14.33;;;;;23.54;58.56;100956.34;5016824;28;45418;-69
2023/10/03 03:20:18;;;;;;;;;15.00;13.33;;;;;23.48;58.38;100951.28;5016566;28;45764;-69
2023/10/03 03:22:50;;;;;;;;;19.33;19.33;;;;;23.64;58.56;100983.50;5016894;28;45326;-70
2023/10/03 03:26:09;;;;;;;;;16.33;15.33;;;;;23.61;58.70;100981.84;5016742;28;45334;-69
2023/10/03 03:28:13;;;;;;;;;18.33;14.00;;;;;23.55;58.46;100971.44;5008160;28;45517;-70
2023/10/03 03:30:46;;;;;;;;;14.67;12.67;;;;;23.61;58.52;100984.50;5014856;28;46191;-70
2023/10/03 03:33:20;;;;;;;;;14.33;13.67;;;;;23.60;58.66;100988.13;5015930;28;45486;-70
2023/10/03 03:35:48;;;;;;;;;13.67;12.67;;;;;23.42;58.58;100965.81;5016245;28;45480;-69
2023/10/03 03:38:15;;;;;;;;;15.33;13.67;;;;;23.56;58.67;100993.69;5016660;28;45463;-71
2023/10/03 03:40:46;;;;;;;;;15.67;11.67;;;;;23.54;58.48;100985.75;5015062;28;47689;-70
2023/10/03 03:43:16;;;;;;;;;14.33;12.00;;;;;23.52;58.19;100992.97;5016678;28;45441;-69
2023/10/03 03:45:45;;;;;;;;;13.67;11.67;;;;;23.47;58.06;100973.63;5016612;28;45474;-69
2023/10/03 03:48:13;;;;;;;;;14.00;12.33;;;;;23.50;58.46;100985.03;5016869;28;46140;-70
2023/10/03 03:50:51;;;;;;;;;12.67;12.00;;;;;23.13;58.49;100932.44;5016857;28;45445;-70
2023/10/03 03:53:21;;;;;;;;;12.33;11.33;;;;;23.48;58.00;100994.06;5017139;28;45377;-70
2023/10/03 03:55:51;;;;;;;;;11.33;10.67;;;;;23.44;58.19;100992.47;5016961;28;45450;-70
2023/10/03 03:58:18;;;;;;;;;12.00;12.00;;;;;23.18;58.42;100961.63;5016129;28;45443;-70
2023/10/03 04:03:42;;;;;;;;;13.67;11.00;;;;;23.46;58.19;101017.31;4976061;28;45436;-70
2023/10/03 04:06:21;;;;;;;;;12.00;12.00;;;;;23.40;58.47;101010.47;4999520;28;45799;-69
2023/10/03 04:08:48;;;;;;;;;15.00;12.33;;;;;23.29;58.13;100994.91;5014769;28;45601;-71
2023/10/03 04:11:17;;;;;;;;;14.00;11.67;;;;;23.42;58.26;101023.75;5017135;28;45378;-70
2023/10/03 04:13:49;;;;;;;;;12.67;11.00;;;;;23.20;58.76;100981.13;5016806;28;45479;-69
2023/10/03 04:16:21;;;;;;;;;13.67;10.67;;;;;23.23;58.68;100979.19;5016810;28;45343;-70
2023/10/03 04:18:58;;;;;;;;;11.67;11.67;;;;;23.40;58.51;101020.28;5015268;28;45383;-69
2023/10/03 04:21:29;;;;;;;;;15.67;10.67;;;;;23.36;59.02;101032.91;5018368;28;48120;-70
2023/10/03 04:23:59;;;;;;;;;13.00;11.33;;;;;23.25;58.86;101030.75;5016630;28;45359;-70
2023/10/03 04:26:28;;;;;;;;;10.00;10.00;;;;;23.26;58.65;101028.94;5002008;28;45408;-70
2023/10/03 04:28:54;;;;;;;;;14.00;11.00;;;;;23.29;58.70;101039.50;5015178;28;45590;-69
2023/10/03 04:31:20;;;;;;;;;11.33;11.33;;;;;23.28;59.16;101054.66;5015982;28;45593;-69
2023/10/03 04:33:46;;;;;;;;;14.00;12.33;;;;;23.10;58.97;101018.09;5016386;28;45394;-71
2023/10/03 04:36:14;;;;;;;;;14.00;13.00;;;;;23.27;59.10;101044.03;5016404;28;45263;-70
2023/10/03 04:39:14;;;;;;;;;14.00;14.00;;;;;23.13;58.97;101006.41;5016192;28;45543;-69
2023/10/03 04:41:43;;;;;;;;;13.00;12.33;;;;;22.62;58.91;100945.44;4998616;28;46190;-70
2023/10/03 04:44:17;;;;;;;;;10.67;10.00;;;;;23.24;59.20;101070.91;5016187;28;45699;-71
2023/10/03 04:46:44;;;;;;;;;11.33;11.33;;;;;23.17;59.07;101048.94;5015577;28;45467;-69
2023/10/03 04:49:10;;;;;;;;;11.33;10.67;;;;;23.15;59.35;101044.59;5016066;28;45347;-72
2023/10/03 04:51:37;;;;;;;;;12.00;10.67;;;;;23.20;59.40;101063.97;5014759;28;46164;-71
2023/10/03 04:54:03;;;;;;;;;12.67;11.00;;;;;23.10;59.36;101066.19;5015561;28;45468;-71
2023/10/03 04:56:29;;;;;;;;;11.67;11.67;;;;;23.03;59.43;101052.22;5016082;28;45473;-70
2023/10/03 04:58:55;;;;;;;;;13.00;11.00;;;;;23.20;59.31;101086.19;5015713;28;45472;-70
2023/10/03 05:01:27;;;;;;;;;11.33;11.33;;;;;23.18;59.53;101079.19;5014899;28;45536;-70
2023/10/03 05:03:54;;;;;;;;;12.67;10.33;;;;;23.05;59.71;101058.38;5014953;28;45838;-70
2023/10/03 05:06:23;;;;;;;;;11.67;11.67;;;;;23.11;59.68;101069.72;5016179;28;45445;-70
2023/10/03 05:08:48;;;;;;;;;12.33;9.00;;;;;23.07;59.68;101069.88;5015911;28;45478;-71
2023/10/03 05:11:14;;;;;;;;;8.00;8.00;;;;;23.11;59.78;101075.06;5015389;28;45516;-71
2023/10/03 05:13:43;;;;;;;;;10.33;10.33;;;;;23.06;60.11;101067.25;5017057;28;45501;-70
2023/10/03 05:16:11;;;;;;;;;13.67;11.33;;;;;22.86;59.92;101057.44;5015608;28;45411;-73
2023/10/03 05:18:39;;;;;;;;;12.00;12.00;;;;;23.12;60.12;101091.03;5017466;28;45869;-74
2023/10/03 05:21:05;;;;;;;;;15.33;12.33;;;;;22.70;59.68;101013.66;5015811;28;45642;-73
2023/10/03 05:23:31;;;;;;;;;13.00;10.33;;;;;22.97;59.97;101081.88;5015026;28;45483;-71
2023/10/03 05:25:57;;;;;;;;;10.33;9.00;;;;;23.00;60.24;101099.59;5013572;28;45551;-71
2023/10/03 05:28:22;;;;;;;;;9.33;9.33;;;;;22.90;60.41;101085.75;5015577;28;45621;-72
2023/10/03 05:30:48;;;;;;;;;12.00;9.00;;;;;22.96;60.59;101097.97;5018364;28;45988;-70
2023/10/03 05:33:13;;;;;;;;;11.67;11.33;;;;;22.94;60.39;101100.69;5018272;28;45276;-70
2023/10/03 05:35:39;;;;;;;;;12.00;7.33;;;;;22.89;60.24;101108.03;5018588;28;45490;-72
2023/10/03 05:38:08;;;;;;;;;10.67;9.00;;;;;22.89;60.04;101101.84;5018748;28;45831;-71
2023/10/03 05:40:35;;;;;;;;;9.67;8.00;;;;;22.95;60.92;101113.13;5018753;28;45385;-70
2023/10/03 05:43:03;;;;;;;;;8.33;8.33;;;;;22.91;60.89;101111.50;5018646;28;45369;-71
2023/10/03 05:45:29;;;;;;;;;7.67;7.67;;;;;22.99;61.39;101121.88;5018698;28;45450;-72
2023/10/03 05:47:59;;;;;;;;;9.33;8.67;;;;;22.82;60.85;101101.22;5019747;28;45586;-72
2023/10/03 05:50:34;;;;;;;;;10.67;9.00;;;;;22.99;60.66;101124.56;5030647;28;46248;-71
2023/10/03 05:53:06;;;;;;;;;7.33;7.33;;;;;22.97;60.50;101121.94;5025788;28;45472;-72
2023/10/03 05:55:31;;;;;;;;;9.00;7.33;;;;;22.74;60.49;101080.19;5030688;28;45472;-71
2023/10/03 05:57:57;;;;;;;;;11.33;11.33;;;;;22.87;61.03;101109.91;5019925;28;44958;-72
2023/10/03 06:00:23;;;;;;;;;13.67;10.67;;;;;22.85;60.98;101146.47;5021659;28;45509;-71
2023/10/03 06:03:01;;;;;;;;;11.33;10.00;;;;;22.82;61.39;101144.81;5018380;28;45452;-72
2023/10/03 06:05:27;;;;;;;;;11.67;11.00;;;;;22.88;61.31;101142.84;5013278;28;45493;-71
2023/10/03 06:07:53;;;;;;;;;13.00;11.33;;;;;22.85;61.07;101123.34;5018688;28;45450;-71
2023/10/03 06:10:19;;;;;;;;;10.67;8.33;;;;;22.74;61.67;101114.06;5018257;28;46298;-71
2023/10/03 06:12:44;;;;;;;;;10.67;10.67;;;;;22.79;61.44;101128.94;5004754;28;45428;-71
2023/10/03 06:15:12;;;;;;;;;9.33;8.67;;;;;22.78;62.03;101124.53;5016550;28;45515;-71
2023/10/03 06:17:40;;;;;;;;;8.00;8.00;;;;;22.71;62.16;101122.16;5019170;28;45560;-71
2023/10/03 06:20:15;;;;;;;;;7.33;7.33;;;;;22.33;62.92;101081.94;5031790;28;46942;-72
2023/10/03 06:22:44;;;;;;;;;9.67;7.67;;;;;22.50;62.62;101113.28;5017333;28;45884;-72
2023/10/03 06:25:10;;;;;;;;;12.00;10.67;;;;;22.48;62.72;101129.34;5014083;28;46681;-71
2023/10/03 06:27:37;;;;;;;;;10.00;8.67;;;;;22.36;63.12;101114.72;5017883;28;45493;-73
2023/10/03 06:30:04;;;;;;;;;9.67;9.67;;;;;22.35;63.75;101098.75;5018103;28;46616;-71
2023/10/03 06:32:30;;;;;;;;;8.67;8.67;;;;;22.07;64.19;101090.97;5017863;28;45517;-72
2023/10/03 06:34:55;;;;;;;;;9.67;8.67;;;;;22.19;64.67;101130.53;5017463;28;45407;-71
2023/10/03 06:37:23;;;;;;;;;11.67;10.33;;;;;22.03;65.43;101130.25;5018707;28;45492;-72
2023/10/03 06:39:49;;;;;;;;;13.33;10.33;;;;;21.94;65.73;101125.28;5017089;28;46330;-72
2023/10/03 06:42:14;;;;;;;;;10.33;9.67;;;;;21.83;65.73;101115.03;5017461;28;45263;-72
2023/10/03 06:44:40;;;;;;;;;12.33;11.33;;;;;21.97;65.36;101125.16;5017326;28;45526;-71
2023/10/03 06:47:07;;;;;;;;;12.67;7.33;;;;;22.06;65.17;101132.78;5020556;28;45662;-75
2023/10/03 06:49:33;;;;;;;;;9.67;9.67;;;;;22.06;65.00;101118.59;5018122;28;45710;-77
2023/10/03 06:52:01;;;;;;;;;10.33;10.00;;;;;22.01;65.94;101135.63;5018440;28;45510;-74
2023/10/03 06:54:27;;;;;;;;;10.00;10.00;;;;;21.95;65.81;101135.88;5018217;28;45371;-71
2023/10/03 06:56:53;;;;;;;;;10.00;9.00;;;;;21.98;65.87;101133.09;5019531;28;45720;-71
2023/10/03 06:59:19;;;;;;;;;10.67;9.33;;;;;21.89;66.03;101141.44;5017815;28;46109;-71
2023/10/03 07:01:45;;;;;;;;;11.33;9.67;;;;;21.98;65.88;101148.25;5016766;28;45574;-71
2023/10/03 07:04:11;;;;;;;;;13.33;10.67;;;;;21.93;65.80;101129.75;5028874;28;45453;-71
2023/10/03 07:06:37;;;;;;;;;11.33;9.67;;;;;22.13;65.45;101174.28;5009297;28;45414;-71
2023/10/03 07:09:06;;;;;;;;;7.00;7.00;;;;;22.01;65.50;101158.78;5016836;28;46418;-71
2023/10/03 07:11:31;;;;;;;;;9.67;9.00;;;;;22.20;65.50;101190.94;5016764;28;45488;-71
2023/10/03 07:13:57;;;;;;;;;13.00;12.00;;;;;22.15;65.51;101191.13;5015867;28;45443;-71
2023/10/03 07:16:22;;;;;;;;;11.00;9.33;;;;;22.07;66.19;101222.56;5018387;28;45262;-71
2023/10/03 07:18:48;;;;;;;;;14.00;9.33;;;;;21.95;66.27;101228.38;5016569;28;45749;-71
2023/10/03 07:21:15;;;;;;;;;9.67;8.00;;;;;21.81;66.52;101191.56;5015401;28;45621;-71
2023/10/03 07:23:42;;;;;;;;;11.00;9.33;;;;;21.93;66.06;101208.88;5016539;28;45531;-72
2023/10/03 07:26:07;;;;;;;;;9.00;8.67;;;;;22.09;66.25;101230.50;5017176;28;45408;-71
2023/10/03 07:28:33;;;;;;;;;10.33;9.00;;;;;22.09;66.38;101222.47;5015762;28;46035;-71
2023/10/03 07:30:59;;;;;;;;;10.67;10.33;;;;;22.08;66.38;101210.97;5016666;28;45465;-70
2023/10/03 07:33:24;;;;;;;;;14.67;10.33;;;;;22.19;66.20;101227.44;5017076;28;45531;-70
2023/10/03 07:35:50;;;;;;;;;12.00;10.67;;;;;21.97;67.55;101203.38;5016752;28;45548;-71
2023/10/03 07:38:16;;;;;;;;;9.33;7.33;;;;;21.97;67.03;101210.50;5016662;28;46241;-72
2023/10/03 07:40:41;;;;;;;;;11.33;9.67;;;;;22.05;66.89;101212.88;5017746;28;45478;-72
2023/10/03 07:43:09;;;;;;;;;10.33;8.33;;;;;22.15;66.88;101206.25;5016976;28;45727;-72
2023/10/03 07:45:37;;;;;;;;;10.00;8.00;;;;;22.17;67.06;101207.94;5017189;28;45578;-72
2023/10/03 07:48:05;;;;;;;;;10.67;9.33;;;;;21.93;68.13;101222.22;5014993;28;46724;-71
2023/10/03 07:50:35;;;;;;;;;11.67;8.67;;;;;21.85;67.84;101224.28;5016337;28;45338;-71
2023/10/03 07:53:03;;;;;;;;;9.00;9.00;;;;;21.98;67.65;101239.78;5016014;28;45407;-72
2023/10/03 07:55:32;;;;;;;;;8.00;8.00;;;;;21.98;67.72;101228.25;5016286;28;45431;-68
2023/10/03 07:57:58;;;;;;;;;12.33;8.67;;;;;22.05;67.38;101240.41;5016207;28;45550;-71
2023/10/03 08:00:26;;;;;;;;;9.33;8.00;;;;;21.90;67.87;101231.22;5015064;28;45914;-72
2023/10/03 08:02:52;;;;;;;;;11.00;9.00;;;;;21.99;67.28;101244.16;5016545;28;45452;-70
2023/10/03 08:05:19;;;;;;;;;9.33;9.00;;;;;22.13;67.01;101258.78;5017697;28;45398;-70
2023/10/03 08:07:47;;;;;;;;;9.33;9.33;;;;;22.10;66.63;101249.13;5015877;28;46224;-72
2023/10/03 08:10:17;;;;;;;;;9.67;8.67;;;;;22.23;66.75;101273.56;5016345;28;45359;-70
2023/10/03 08:12:43;;;;;;;;;12.67;8.33;;;;;22.10;67.21;101256.25;5015979;28;45334;-69
2023/10/03 08:15:18;;;;;;;;;11.33;9.67;;;;;22.18;67.07;101270.16;5014641;28;45483;-70
2023/10/03 08:17:48;;;;;;;;;10.67;10.00;;;;;21.82;68.05;101267.94;5016219;28;45472;-71
2023/10/03 08:20:23;;;;;;;;;7.67;6.67;;;;;21.91;67.65;101274.75;5015205;28;46158;-71
2023/10/03 08:22:52;;;;;;;;;9.00;8.33;;;;;21.77;67.31;101238.78;5028223;28;45573;-72
2023/10/03 08:25:21;;;;;;;;;9.67;8.67;;;;;22.03;67.06;101263.59;5006406;28;45435;-71
2023/10/03 08:27:51;;;;;;;;;11.67;10.00;;;;;22.14;66.86;101300.53;5016027;28;45389;-73
2023/10/03 08:30:30;;;;;;;;;12.67;11.67;;;;;22.18;66.91;101337.72;5016056;28;45492;-73
2023/10/03 08:33:04;;;;;;;;;7.67;6.33;;;;;22.18;65.83;101351.06;5016220;28;45256;-70
2023/10/03 08:35:39;;;;;;;;;12.33;11.00;;;;;22.16;64.51;101360.94;5015862;28;45566;-72
2023/10/03 08:38:12;;;;;;;;;7.67;7.00;;;;;22.19;63.69;101366.16;5015602;28;46622;-72
2023/10/03 08:40:49;;;;;;;;;7.33;6.00;;;;;22.20;63.68;101378.59;5015652;28;45431;-71
2023/10/03 08:43:25;;;;;;;;;9.00;6.33;;;;;21.78;63.25;101309.84;5014786;28;45688;-73
2023/10/03 08:45:57;;;;;;;;;7.00;7.00;;;;;22.18;62.71;101358.19;5016962;28;45313;-73
2023/10/03 08:48:27;;;;;;;;;7.00;5.33;;;;;22.38;62.30;101377.06;5014273;28;46233;-72
2023/10/03 08:50:58;;;;;;;;;8.33;5.67;;;;;22.37;61.28;101385.13;5027317;28;45299;-73
2023/10/03 08:53:27;;;;;;;;;7.00;6.00;;;;;22.41;61.59;101400.09;5012551;28;45511;-74
2023/10/03 08:56:02;;;;;;;;;7.33;5.00;;;;;22.43;61.49;101406.25;5015932;28;45465;-78
2023/10/03 08:58:28;;;;;;;;;6.00;5.67;;;;;22.30;61.18;101384.47;5014907;28;45729;-72
2023/10/03 09:00:58;;;;;;;;;7.00;6.00;;;;;22.46;61.07;101394.59;5016116;28;45408;-78
2023/10/03 09:03:29;;;;;;;;;4.25;4.25;;;;;22.32;60.81;101385.28;5017529;28;45517;-74
2023/10/03 09:05:58;;;;;;;;;7.33;6.00;;;;;22.38;61.01;101390.41;5019867;28;45753;-76
2023/10/03 09:08:25;;;;;;;;;7.67;6.00;;;;;22.57;61.26;101419.09;5036582;28;46845;-75
2023/10/03 09:10:52;;;;;;;;;4.50;4.50;;;;;22.61;61.12;101437.63;5024319;28;45494;-81
2023/10/03 09:13:25;;;;;;;;;6.25;3.50;;;;;22.67;61.12;101431.16;5023944;28;45583;-69
2023/10/03 09:16:08;;;;;;;;;4.67;4.00;;;;;22.53;60.59;101404.13;5021554;28;45375;-74
2023/10/03 09:18:42;;;;;;;;;5.67;3.00;;;;;22.48;60.84;101416.75;5019895;28;46306;-77
2023/10/03 09:21:23;;;;;;;;;4.00;3.50;;;;;22.69;60.41;101453.34;5021346;28;45845;-78
2023/10/03 09:24:01;;;;;;;;;6.00;3.25;;;;;22.71;60.47;101463.94;5035080;28;45795;-74
2023/10/03 09:26:36;;;;;;;;;3.75;3.00;;;;;22.75;59.61;101461.09;5023862;28;45288;-72
2023/10/03 09:29:08;;;;;;;;;7.25;4.00;;;;;22.86;59.03;101477.59;5018350;28;45577;-70
2023/10/03 09:31:33;;;;;;;;;4.50;3.00;;;;;22.99;58.25;101461.16;5018889;28;45378;-72
2023/10/03 09:34:01;;;;;;;;;5.00;4.00;;;;;23.14;57.27;101473.94;5018481;28;45310;-73
2023/10/03 09:36:28;;;;;;;;;5.00;4.25;;;;;23.03;57.02;101463.63;5021140;28;45408;-75
2023/10/03 09:38:55;;;;;;;;;2.50;2.50;;;;;22.99;56.87;101443.34;5018718;28;47064;-81
2023/10/03 09:41:21;;;;;;;;;2.75;2.75;;;;;23.03;56.27;101436.06;5019857;28;45399;-79
2023/10/03 09:43:53;;;;;;;;;4.50;2.75;;;;;23.57;55.57;101506.97;5018963;28;45501;-81
2023/10/03 09:46:23;;;;;;;;;4.50;4.00;;;;;23.73;54.51;101495.66;5020348;28;45406;-78
2023/10/03 09:48:53;;;;;;;;;4.00;2.25;;;;;23.77;54.68;101500.84;5036633;28;47965;-80
2023/10/03 09:51:36;;;;;;;;;1.00;0.25;;;;;23.77;54.23;101513.34;5019893;28;45473;-83
2023/10/03 09:54:05;;;;;;;;;3.00;3.00;;;;;23.69;54.67;101535.91;5015593;28;45522;-78
2023/10/03 09:56:36;;;;;;;;;2.50;2.50;;;;;23.46;54.02;101511.88;5022073;28;46263;-82
2023/10/03 09:59:05;;;;;;;;;3.25;3.00;;;;;23.69;54.21;101535.91;5020430;28;46796;-79
2023/10/03 10:01:34;;;;;;;;;3.50;2.00;;;;;23.31;53.07;101441.19;5022513;28;45426;-81
2023/10/03 10:04:07;;;;;;;;;2.75;2.00;;;;;23.94;52.71;101512.66;5030974;28;45534;-83
2023/10/03 10:06:51;;;;;;;;;3.00;2.00;;;;;23.37;51.76;101391.94;5021839;28;45549;-81
2023/10/03 10:09:29;;;;;;;;;3.50;2.50;;;;;24.15;51.89;101567.94;5018104;28;45524;-85
2023/10/03 10:12:15;;;;;;;;;5.25;3.25;;;;;24.03;52.39;101561.31;5019018;28;45722;-83
2023/10/03 10:15:21;;;;;;;;;2.25;2.00;;;;;24.04;52.59;101564.88;5009861;28;45602;-81
2023/10/03 10:17:51;;;;;;;;;7.50;3.00;;;;;24.08;52.08;101562.00;5016577;28;45510;-82
2023/10/03 10:20:37;;;;;;;;;3.00;2.50;;;;;24.25;52.08;101563.06;5016127;28;46663;-82
2023/10/03 10:23:06;;;;;;;;;2.25;2.25;;;;;24.52;50.46;101577.16;5018415;28;45438;-77
2023/10/03 10:25:43;;;;;;;;;5.50;4.00;;;;;24.49;50.30;101571.94;5018855;28;45517;-81
2023/10/03 10:28:09;;;;;;;;;6.00;3.50;;;;;24.54;50.50;101591.34;5014273;28;45939;-79
2023/10/03 10:30:37;;;;;;;;;4.75;3.00;;;;;24.51;50.09;101605.75;5017927;28;45392;-80
2023/10/03 10:33:18;;;;;;;;;3.75;2.75;;;;;25.31;49.19;101604.91;5016754;28;45428;-76
2023/10/03 10:35:59;;;;;;;;;9.50;3.50;;;;;25.62;47.53;101600.78;5016889;28;45714;-81
2023/10/03 10:38:31;;;;;;;;;5.25;4.25;;;;;28.10;43.72;101597.72;5013479;28;45700;-76
2023/10/03 10:41:12;;;;;;;;;3.00;3.00;;;;;31.03;37.94;101601.53;5016609;28;46061;-78
2023/10/03 10:44:14;;;;;;;;;4.60;4.00;;;;;33.37;33.94;101596.53;5008339;28;46019;-80
2023/10/03 10:46:49;;;;;;;;;4.00;3.60;;;;;33.89;32.43;101538.91;5012892;28;46727;-74
2023/10/03 10:49:30;;;;;;;;;6.75;4.00;;;;;34.05;32.05;101612.69;5015197;28;45642;-75
2023/10/03 10:52:01;;;;;;;;;5.60;5.60;;;;;32.69;32.69;101616.41;5011020;28;45842;-77
2023/10/03 10:54:31;;;;;;;;;6.60;5.00;;;;;30.57;34.96;101607.44;5017088;28;45548;-74
2023/10/03 10:57:01;;;;;;;;;3.40;3.40;;;;;29.39;37.74;101648.41;5015993;28;45882;-75
2023/10/03 10:59:27;;;;;;;;;6.20;5.00;;;;;28.73;38.42;101653.28;5014954;28;45908;-77
2023/10/03 11:01:53;;;;;;;;;6.80;5.00;;;;;28.05;38.90;101648.28;5015063;28;45587;-72
2023/10/03 11:04:27;;;;;;;;;7.00;5.00;;;;;27.55;40.33;101651.06;5014505;28;45649;-76
2023/10/03 11:06:53;;;;;;;;;4.80;4.00;;;;;27.23;41.08;101632.16;5014550;28;45534;-74
2023/10/03 11:09:20;;;;;;;;;5.00;4.00;;;;;26.91;41.69;101664.28;5012490;28;45587;-77
2023/10/03 11:11:47;;;;;;;;;3.50;3.50;;;;;27.55;40.63;101638.50;5014706;28;46239;-77
2023/10/03 11:14:26;;;;;;;;;3.00;3.00;;;;;29.23;38.17;101655.72;5010538;28;45790;-77
2023/10/03 11:16:51;;;;;;;;;4.60;3.80;;;;;32.63;33.38;101655.72;5015519;28;45520;-74
2023/10/03 11:19:17;;;;;;;;;6.75;3.75;;;;;35.07;29.93;101642.16;5013950;28;45528;-77
2023/10/03 11:21:43;;;;;;;;;5.50;4.25;;;;;36.65;26.64;101647.78;5014790;28;45581;-75
2023/10/03 11:24:14;;;;;;;;;5.00;4.00;;;;;37.97;25.61;101655.97;5015877;28;45528;-73
2023/10/03 11:26:47;;;;;;;;;2.40;2.40;;;;;38.98;23.83;101672.16;5015757;28;45380;-78
2023/10/03 11:29:17;;;;;;;;;4.00;2.80;;;;;38.45;24.52;101645.69;5015406;28;45459;-76
2023/10/03 11:31:45;;;;;;;;;3.00;3.00;;;;;35.72;26.40;101668.19;5016272;28;45624;-77
2023/10/03 11:34:11;;;;;;;;;3.60;2.80;;;;;34.08;28.71;101682.28;5015044;28;45644;-77
2023/10/03 11:36:45;;;;;;;;;7.40;4.00;;;;;33.64;29.46;101640.59;5011008;28;45573;-79